Time;durP1;ratioP1;P1;durP2;ratioP2;P2;SDS_P1;SDS_P2;PMS_P1;PMS_P2;Temp;Humidity;BMP_temperature;BMP_pressure;BME280_temperature;BME280_humidity;BME280_pressure;Samples;Min_cycle;Max_cycle;Signal;HPM_P1;HPM_P2
2021/12/27 00:01:04;;;;;;;15.30;7.53;;;3.60;96.20;;;;;;5093627;28;20340;-76
2021/12/27 00:03:30;;;;;;;15.00;6.38;;;3.60;96.20;;;;;;5075524;28;20048;-75
2021/12/27 00:05:55;;;;;;;14.60;7.30;;;3.60;96.20;;;;;;5094267;28;20101;-75
2021/12/27 00:08:23;;;;;;;13.60;7.53;;;3.60;96.20;;;;;;5075479;28;20031;-75
2021/12/27 00:10:49;;;;;;;11.60;6.40;;;3.60;96.30;;;;;;5075704;28;20119;-76
2021/12/27 00:13:15;;;;;;;14.27;7.85;;;3.60;96.30;;;;;;5094044;28;20028;-75
2021/12/27 00:15:42;;;;;;;12.77;7.10;;;3.60;96.30;;;;;;5075496;28;20024;-76
2021/12/27 00:18:08;;;;;;;13.18;5.85;;;3.60;96.30;;;;;;5075513;28;20387;-76
2021/12/27 00:20:33;;;;;;;15.20;7.70;;;3.60;96.30;;;;;;5076138;28;20023;-75
2021/12/27 00:22:59;;;;;;;15.70;7.50;;;3.60;96.30;;;;;;5094216;28;20024;-75
2021/12/27 00:25:26;;;;;;;15.15;7.47;;;3.60;96.30;;;;;;5075302;28;20063;-75
2021/12/27 00:27:52;;;;;;;16.38;8.27;;;3.60;96.30;;;;;;5093759;28;20050;-75
2021/12/27 00:30:20;;;;;;;16.40;7.35;;;3.60;96.40;;;;;;5093744;28;20372;-75
2021/12/27 00:32:47;;;;;;;13.00;6.60;;;3.60;96.40;;;;;;5075998;28;20024;-74
2021/12/27 00:35:14;;;;;;;16.20;7.25;;;3.70;96.40;;;;;;5093368;28;20088;-75
2021/12/27 00:37:41;;;;;;;14.05;7.18;;;3.70;96.40;;;;;;5092893;28;20457;-74
2021/12/27 00:40:08;;;;;;;13.75;7.20;;;3.70;96.40;;;;;;5093050;28;20070;-74
2021/12/27 00:42:34;;;;;;;15.50;7.07;;;3.70;96.40;;;;;;5093216;28;20024;-74
2021/12/27 00:45:00;;;;;;;14.68;7.38;;;3.70;96.40;;;;;;5092511;28;20513;-75
2021/12/27 00:47:25;;;;;;;15.85;7.20;;;3.70;96.40;;;;;;5093178;28;20028;-76
2021/12/27 00:49:51;;;;;;;12.65;6.70;;;3.70;96.50;;;;;;5074967;28;20074;-76
2021/12/27 00:52:17;;;;;;;15.43;7.53;;;3.70;96.40;;;;;;5075311;28;20024;-76
2021/12/27 00:54:42;;;;;;;16.83;7.75;;;3.70;96.40;;;;;;5093124;28;20059;-76
2021/12/27 00:57:08;;;;;;;12.90;6.97;;;3.70;96.50;;;;;;5093555;28;20032;-76
2021/12/27 00:59:34;;;;;;;16.27;7.85;;;3.70;96.50;;;;;;5092752;28;20036;-76
2021/12/27 01:01:59;;;;;;;13.80;7.18;;;3.70;96.50;;;;;;5093307;28;20174;-75
2021/12/27 01:04:25;;;;;;;16.98;8.05;;;3.70;96.50;;;;;;5074587;28;20055;-75
2021/12/27 01:06:51;;;;;;;14.15;7.30;;;3.70;96.50;;;;;;5074875;28;20031;-75
2021/12/27 01:09:34;;;;;;;13.80;7.25;;;3.80;96.50;;;;;;5074920;28;20025;-75
2021/12/27 01:15:06;;;;;;;14.45;7.40;;;3.80;96.50;;;;;;5051501;28;20028;-75
2021/12/27 01:17:31;;;;;;;13.93;7.50;;;3.80;96.50;;;;;;5092665;28;20036;-75
2021/12/27 01:19:57;;;;;;;11.40;6.63;;;3.80;96.60;;;;;;5092870;28;20069;-75
2021/12/27 01:22:23;;;;;;;14.20;7.00;;;3.80;96.60;;;;;;5093209;28;20024;-76
2021/12/27 01:24:48;;;;;;;12.75;6.53;;;3.80;96.60;;;;;;5093370;28;20049;-75
2021/12/27 01:27:14;;;;;;;13.30;7.40;;;3.80;96.60;;;;;;5070885;28;20091;-76
2021/12/27 01:29:40;;;;;;;15.73;7.72;;;3.80;96.60;;;;;;5072484;28;20029;-76
2021/12/27 01:32:06;;;;;;;14.25;7.70;;;3.80;96.60;;;;;;5072382;28;20025;-75
2021/12/27 01:34:32;;;;;;;15.07;7.30;;;3.80;96.70;;;;;;5072565;28;20113;-74
2021/12/27 01:36:58;;;;;;;12.20;6.07;;;3.80;96.70;;;;;;5072659;28;20017;-75
2021/12/27 01:39:24;;;;;;;15.13;6.82;;;3.80;96.70;;;;;;5072633;28;20480;-76
2021/12/27 01:41:51;;;;;;;13.10;7.22;;;3.80;96.70;;;;;;5073280;28;20028;-75
2021/12/27 01:44:17;;;;;;;13.02;7.00;;;3.80;96.70;;;;;;5076558;28;20043;-75
2021/12/27 01:46:43;;;;;;;12.98;6.75;;;3.80;96.70;;;;;;5073624;28;20017;-74
2021/12/27 01:49:08;;;;;;;15.10;7.60;;;3.80;96.70;;;;;;5079192;28;20476;-75
2021/12/27 01:51:38;;;;;;;15.32;6.85;;;3.80;96.70;;;;;;5071132;28;20409;-75
2021/12/27 01:54:04;;;;;;;15.77;7.68;;;3.90;96.80;;;;;;5073112;28;20032;-75
2021/12/27 01:56:30;;;;;;;15.60;7.78;;;3.90;96.80;;;;;;5073463;28;20174;-75
2021/12/27 01:58:57;;;;;;;14.90;6.88;;;3.90;96.80;;;;;;5075599;28;20434;-76
2021/12/27 02:01:24;;;;;;;13.63;7.40;;;3.90;96.80;;;;;;5075359;28;20353;-75
2021/12/27 02:03:51;;;;;;;15.20;7.10;;;3.90;96.80;;;;;;5075854;28;20158;-75
2021/12/27 02:06:18;;;;;;;16.10;7.72;;;3.90;96.80;;;;;;5076183;28;20126;-75
2021/12/27 02:08:44;;;;;;;17.30;7.85;;;3.90;96.80;;;;;;5075657;28;20066;-76
2021/12/27 02:11:12;;;;;;;13.13;6.18;;;3.90;96.80;;;;;;5074428;28;20025;-75
2021/12/27 02:13:43;;;;;;;13.48;6.30;;;3.90;96.90;;;;;;5074251;28;20035;-75
2021/12/27 02:16:10;;;;;;;18.40;8.00;;;3.90;96.80;;;;;;5075785;28;20021;-75
2021/12/27 02:18:37;;;;;;;13.23;7.75;;;3.90;96.90;;;;;;5074090;28;20035;-76
2021/12/27 02:21:04;;;;;;;12.68;6.63;;;3.90;96.90;;;;;;5075673;28;20108;-75
2021/12/27 02:23:30;;;;;;;12.35;7.25;;;3.90;96.90;;;;;;5075153;28;20069;-76
2021/12/27 02:25:55;;;;;;;14.38;7.63;;;4.00;96.90;;;;;;5079337;28;20383;-75
2021/12/27 02:28:21;;;;;;;13.75;6.68;;;3.90;96.90;;;;;;5095671;28;20429;-75
2021/12/27 02:30:49;;;;;;;13.45;6.95;;;3.90;96.90;;;;;;5095557;28;20103;-75
2021/12/27 02:33:15;;;;;;;13.68;7.10;;;4.00;97.00;;;;;;5095499;28;20024;-75
2021/12/27 02:35:45;;;;;;;11.98;6.72;;;4.00;97.00;;;;;;5077661;28;20020;-76
2021/12/27 02:38:14;;;;;;;12.57;6.97;;;4.00;97.00;;;;;;5077372;28;20032;-75
2021/12/27 02:40:41;;;;;;;14.90;7.10;;;4.00;97.00;;;;;;5078448;28;20111;-76
2021/12/27 02:43:12;;;;;;;13.85;7.75;;;4.00;97.00;;;;;;5097512;28;20032;-76
2021/12/27 02:45:44;;;;;;;12.63;6.53;;;4.00;97.00;;;;;;5096130;28;20028;-75
2021/12/27 02:48:11;;;;;;;14.55;6.35;;;4.00;97.00;;;;;;5077406;28;20032;-75
2021/12/27 02:50:38;;;;;;;12.93;6.75;;;4.00;97.00;;;;;;5095193;28;20024;-76
2021/12/27 02:53:05;;;;;;;13.70;7.32;;;4.00;97.00;;;;;;5076929;28;20103;-75
2021/12/27 02:55:31;;;;;;;11.80;6.28;;;4.10;97.10;;;;;;5095019;28;20514;-76
2021/12/27 02:57:57;;;;;;;12.07;6.78;;;4.00;97.00;;;;;;5094606;28;20036;-75
2021/12/27 03:00:29;;;;;;;12.95;7.13;;;4.10;97.10;;;;;;5095055;28;20028;-75
2021/12/27 03:02:55;;;;;;;14.52;7.03;;;4.10;97.10;;;;;;5077563;28;20026;-75
2021/12/27 03:05:23;;;;;;;12.82;6.72;;;4.10;97.10;;;;;;5076712;28;20029;-75
2021/12/27 03:07:51;;;;;;;12.35;6.53;;;4.10;97.10;;;;;;5093774;28;20093;-75
2021/12/27 03:10:23;;;;;;;14.02;7.15;;;4.10;97.10;;;;;;5076594;28;20020;-76
2021/12/27 03:12:50;;;;;;;11.73;6.38;;;4.10;97.10;;;;;;5094785;28;20024;-75
2021/12/27 03:15:17;;;;;;;15.75;7.13;;;4.20;97.10;;;;;;5094758;28;20471;-75
2021/12/27 03:17:44;;;;;;;11.88;6.72;;;4.10;97.10;;;;;;5094533;28;20028;-76
2021/12/27 03:20:13;;;;;;;11.65;6.18;;;4.20;97.20;;;;;;5094678;28;20456;-75
2021/12/27 03:22:41;;;;;;;11.40;7.13;;;4.20;97.20;;;;;;5076333;28;20032;-75
2021/12/27 03:25:09;;;;;;;12.07;5.85;;;4.20;97.20;;;;;;5076463;28;20047;-75
2021/12/27 03:27:35;;;;;;;10.65;6.57;;;4.20;97.20;;;;;;5094475;28;20126;-75
2021/12/27 03:30:00;;;;;;;13.05;7.25;;;4.20;97.40;;;;;;5076355;28;20114;-75
2021/12/27 03:32:26;;;;;;;17.10;7.15;;;4.20;97.20;;;;;;5076173;28;20452;-75
2021/12/27 03:34:54;;;;;;;11.63;6.47;;;4.20;97.20;;;;;;5075984;28;20027;-75
2021/12/27 03:37:21;;;;;;;12.07;6.75;;;4.20;97.20;;;;;;5094229;28;20020;-76
2021/12/27 03:39:48;;;;;;;12.70;6.35;;;4.20;97.30;;;;;;5094169;28;20035;-75
2021/12/27 03:42:15;;;;;;;11.18;6.15;;;4.20;97.30;;;;;;5094192;28;20107;-74
2021/12/27 03:44:41;;;;;;;10.68;6.80;;;4.30;97.30;;;;;;5075821;28;20463;-76
2021/12/27 03:47:07;;;;;;;10.52;5.45;;;4.30;97.30;;;;;;5076706;28;20361;-74
2021/12/27 03:49:33;;;;;;;12.32;6.80;;;4.20;97.30;;;;;;5094249;28;20025;-75
2021/12/27 03:51:58;;;;;;;11.60;6.50;;;4.30;97.30;;;;;;5094369;28;20375;-75
2021/12/27 03:54:24;;;;;;;15.35;6.15;;;4.20;97.30;;;;;;5078462;28;20528;-75
2021/12/27 03:56:49;;;;;;;14.13;7.03;;;4.30;97.30;;;;;;5095500;28;20471;-75
2021/12/27 03:59:34;;;;;;;14.32;7.15;;;4.30;97.40;;;;;;5102514;28;20046;-74
2021/12/27 04:02:00;;;;;;;11.75;6.55;;;4.20;97.30;;;;;;5077144;28;20364;-75
2021/12/27 04:04:26;;;;;;;12.73;6.70;;;4.30;97.40;;;;;;5075603;28;20512;-75
2021/12/27 04:06:51;;;;;;;12.10;6.43;;;4.30;97.40;;;;;;5093514;28;20096;-75
2021/12/27 04:09:17;;;;;;;11.40;5.65;;;4.30;97.40;;;;;;5075549;28;20024;-75
2021/12/27 04:11:43;;;;;;;13.80;6.68;;;4.30;97.40;;;;;;5094121;28;20458;-75
2021/12/27 04:14:09;;;;;;;12.48;6.72;;;4.30;97.40;;;;;;5093738;28;20032;-75
2021/12/27 04:16:34;;;;;;;12.27;7.18;;;4.30;97.40;;;;;;5093813;28;20028;-76
2021/12/27 04:19:00;;;;;;;13.45;7.25;;;4.30;97.40;;;;;;5093530;28;20032;-75
2021/12/27 04:21:26;;;;;;;15.20;7.05;;;4.30;97.40;;;;;;5094005;28;20058;-75
2021/12/27 04:23:51;;;;;;;10.23;5.55;;;4.30;97.40;;;;;;5093469;28;20024;-75
2021/12/27 04:26:17;;;;;;;12.32;6.72;;;4.40;97.40;;;;;;5093267;28;20048;-75
2021/12/27 04:28:43;;;;;;;16.63;6.70;;;4.40;97.40;;;;;;5093075;28;20024;-75
2021/12/27 04:31:08;;;;;;;14.65;6.88;;;4.40;97.50;;;;;;5075477;28;20027;-75
2021/12/27 04:33:34;;;;;;;14.13;7.10;;;4.40;97.50;;;;;;5093823;28;20028;-80
2021/12/27 04:36:00;;;;;;;14.57;6.45;;;4.40;97.50;;;;;;5093871;28;20027;-74
2021/12/27 04:38:25;;;;;;;16.75;7.63;;;4.40;97.50;;;;;;5093183;28;20381;-74
2021/12/27 04:40:52;;;;;;;18.52;7.15;;;4.40;97.50;;;;;;5092916;28;20048;-74
2021/12/27 04:43:21;;;;;;;12.70;6.43;;;4.40;97.50;;;;;;5093346;28;20470;-74
2021/12/27 04:45:49;;;;;;;15.70;6.75;;;4.40;97.50;;;;;;5092916;28;20028;-74
2021/12/27 04:48:15;;;;;;;12.38;6.80;;;4.50;97.60;;;;;;5093201;28;20028;-74
2021/12/27 04:50:40;;;;;;;18.33;8.05;;;4.50;97.60;;;;;;5093642;28;20020;-76
2021/12/27 04:53:06;;;;;;;16.27;7.63;;;4.50;97.60;;;;;;5093173;28;20030;-75
2021/12/27 04:55:34;;;;;;;16.25;7.50;;;4.50;97.60;;;;;;5075381;28;20012;-75
2021/12/27 04:58:00;;;;;;;14.43;7.20;;;4.50;97.60;;;;;;5093151;28;20032;-75
2021/12/27 05:00:27;;;;;;;14.35;7.20;;;4.50;97.60;;;;;;5093155;28;20088;-75
2021/12/27 05:02:53;;;;;;;12.35;6.50;;;4.50;97.60;;;;;;5076251;28;20034;-75
2021/12/27 05:05:18;;;;;;;15.07;7.82;;;4.50;97.60;;;;;;5075257;28;20020;-74
2021/12/27 05:07:44;;;;;;;14.45;7.57;;;4.50;97.60;;;;;;5093553;28;20443;-75
2021/12/27 05:10:11;;;;;;;20.80;8.60;;;4.50;97.60;;;;;;5093122;28;20107;-75
2021/12/27 05:12:37;;;;;;;14.48;7.15;;;4.60;97.60;;;;;;5093011;28;20024;-79
2021/12/27 05:15:04;;;;;;;17.58;7.97;;;4.50;97.60;;;;;;5092703;28;20024;-74
2021/12/27 05:17:31;;;;;;;17.63;7.85;;;4.60;97.70;;;;;;5074625;28;20028;-74
2021/12/27 05:19:57;;;;;;;19.02;8.52;;;4.60;97.70;;;;;;5092935;28;20020;-74
2021/12/27 05:22:24;;;;;;;14.98;8.40;;;4.60;97.70;;;;;;5093116;28;20024;-77
2021/12/27 05:24:50;;;;;;;16.55;7.72;;;4.60;97.70;;;;;;5074632;28;20020;-74
2021/12/27 05:27:16;;;;;;;15.82;8.07;;;4.60;97.70;;;;;;5092978;28;20048;-77
2021/12/27 05:29:42;;;;;;;15.20;8.15;;;4.70;97.70;;;;;;5074654;28;20438;-77
2021/12/27 05:32:08;;;;;;;17.10;9.10;;;4.70;97.70;;;;;;5077035;28;20375;-75
2021/12/27 05:34:33;;;;;;;19.77;9.45;;;4.60;97.70;;;;;;5079048;28;20489;-74
2021/12/27 05:36:59;;;;;;;15.52;7.78;;;4.70;97.70;;;;;;5096372;28;20028;-74
2021/12/27 05:39:25;;;;;;;16.17;8.25;;;4.70;97.70;;;;;;5078180;28;20024;-74
2021/12/27 05:41:51;;;;;;;15.32;7.78;;;4.70;97.80;;;;;;5077709;28;20035;-74
2021/12/27 05:44:18;;;;;;;18.75;8.80;;;4.70;97.80;;;;;;5096432;28;20028;-74
2021/12/27 05:46:44;;;;;;;17.17;7.57;;;4.70;97.80;;;;;;5078674;28;20024;-74
2021/12/27 05:49:09;;;;;;;18.23;8.18;;;4.70;97.80;;;;;;5096379;28;20103;-74
2021/12/27 05:51:36;;;;;;;16.75;7.45;;;4.70;97.80;;;;;;5078062;28;20051;-74
2021/12/27 05:54:04;;;;;;;15.23;7.35;;;4.70;97.80;;;;;;5078075;28;20077;-74
2021/12/27 05:56:29;;;;;;;21.13;9.02;;;4.70;97.80;;;;;;5078021;28;20069;-74
2021/12/27 05:58:55;;;;;;;16.85;7.38;;;4.70;97.80;;;;;;5078107;28;20024;-74
2021/12/27 06:01:21;;;;;;;14.95;8.10;;;4.70;97.80;;;;;;5096924;28;20425;-73
2021/12/27 06:03:46;;;;;;;14.57;7.60;;;4.70;97.80;;;;;;5096345;28;20099;-73
2021/12/27 06:06:14;;;;;;;13.02;6.53;;;4.70;97.80;;;;;;5078473;28;20020;-74
2021/12/27 06:08:40;;;;;;;13.63;7.30;;;4.70;97.80;;;;;;5079174;28;20028;-75
2021/12/27 06:11:06;;;;;;;14.88;6.90;;;4.70;97.80;;;;;;5098939;28;20083;-74
2021/12/27 06:13:31;;;;;;;13.05;6.63;;;4.80;97.90;;;;;;5096239;28;20444;-74
2021/12/27 06:15:57;;;;;;;15.75;8.80;;;4.80;97.80;;;;;;5095823;28;20024;-74
2021/12/27 06:18:24;;;;;;;16.02;7.55;;;4.80;97.90;;;;;;5095536;28;20028;-74
2021/12/27 06:20:50;;;;;;;13.98;7.57;;;4.70;97.90;;;;;;5095785;28;20020;-74
2021/12/27 06:23:16;;;;;;;14.77;7.32;;;4.70;97.90;;;;;;5095688;28;20024;-74
2021/12/27 06:25:43;;;;;;;16.38;8.10;;;4.80;97.90;;;;;;5077495;28;20433;-74
2021/12/27 06:28:09;;;;;;;15.40;7.43;;;4.80;97.90;;;;;;5078406;28;20377;-74
2021/12/27 06:30:35;;;;;;;13.20;6.88;;;4.80;97.90;;;;;;5095274;28;20051;-73
2021/12/27 06:33:01;;;;;;;14.70;7.20;;;4.80;97.90;;;;;;5096219;28;20197;-73
2021/12/27 06:35:27;;;;;;;15.88;7.80;;;4.80;97.90;;;;;;5095522;28;20024;-76
2021/12/27 06:37:53;;;;;;;15.60;8.23;;;4.80;97.90;;;;;;5095143;28;20039;-73
2021/12/27 06:40:18;;;;;;;13.40;7.03;;;4.90;98.00;;;;;;5095320;28;20111;-71
2021/12/27 06:42:45;;;;;;;13.02;6.65;;;4.90;98.00;;;;;;5093975;28;20036;-77
2021/12/27 06:45:12;;;;;;;14.35;7.05;;;4.90;98.00;;;;;;5095160;28;20021;-72
2021/12/27 06:47:38;;;;;;;18.08;7.88;;;4.90;98.00;;;;;;5095111;28;20028;-72
2021/12/27 06:50:05;;;;;;;13.93;7.72;;;4.90;97.90;;;;;;5095056;28;20031;-72
2021/12/27 06:52:31;;;;;;;13.23;6.78;;;4.90;97.90;;;;;;5094860;28;20471;-72
2021/12/27 06:54:57;;;;;;;15.70;6.82;;;4.90;97.90;;;;;;5095050;28;20035;-72
2021/12/27 06:57:22;;;;;;;13.88;7.57;;;5.00;97.90;;;;;;5094710;28;20031;-72
2021/12/27 06:59:48;;;;;;;16.58;8.73;;;5.00;98.20;;;;;;5094602;28;20028;-72
2021/12/27 07:02:14;;;;;;;13.80;7.68;;;4.90;98.00;;;;;;5095247;28;20114;-72
2021/12/27 07:04:39;;;;;;;12.55;6.78;;;5.00;98.00;;;;;;5095380;28;20020;-72
2021/12/27 07:07:05;;;;;;;12.65;7.70;;;5.00;98.00;;;;;;5076549;28;20166;-72
2021/12/27 07:09:31;;;;;;;16.48;7.60;;;5.00;98.00;;;;;;5076656;28;20031;-71
2021/12/27 07:11:57;;;;;;;14.48;7.18;;;5.00;98.00;;;;;;5094352;28;20151;-72
2021/12/27 07:14:22;;;;;;;16.70;8.65;;;5.00;98.00;;;;;;5094738;28;20034;-73
2021/12/27 07:16:49;;;;;;;16.75;7.85;;;5.10;98.10;;;;;;5095076;28;20031;-72
2021/12/27 07:19:15;;;;;;;17.25;7.47;;;5.10;98.10;;;;;;5094249;28;20102;-72
2021/12/27 07:21:41;;;;;;;15.00;6.97;;;5.10;98.10;;;;;;5094646;28;20214;-71
2021/12/27 07:24:07;;;;;;;15.68;7.50;;;5.10;98.10;;;;;;5094206;28;20436;-71
2021/12/27 07:26:32;;;;;;;20.75;7.60;;;5.10;98.10;;;;;;5094205;28;20040;-71
2021/12/27 07:28:58;;;;;;;17.15;8.13;;;5.10;98.10;;;;;;5094804;28;20032;-72
2021/12/27 07:31:24;;;;;;;14.02;7.45;;;5.00;98.10;;;;;;5094967;28;20024;-72
2021/12/27 07:33:50;;;;;;;15.90;8.10;;;5.10;98.20;;;;;;5075978;28;20032;-72
2021/12/27 07:36:16;;;;;;;15.10;7.38;;;5.00;98.20;;;;;;5094269;28;20051;-71
2021/12/27 07:38:42;;;;;;;14.93;8.23;;;5.00;98.30;;;;;;5094042;28;20124;-71
2021/12/27 07:41:08;;;;;;;15.45;7.80;;;5.00;98.30;;;;;;5076018;28;20349;-72
2021/12/27 07:43:34;;;;;;;14.18;7.35;;;5.10;98.30;;;;;;5093994;28;20024;-72
2021/12/27 07:46:00;;;;;;;18.63;8.32;;;5.10;98.30;;;;;;5093940;28;20020;-72
2021/12/27 07:48:25;;;;;;;14.90;7.53;;;5.10;98.30;;;;;;5094011;28;20032;-72
2021/12/27 07:50:51;;;;;;;16.13;7.85;;;5.10;98.30;;;;;;5094351;28;20027;-72
2021/12/27 07:53:17;;;;;;;13.75;7.45;;;5.10;98.30;;;;;;5094110;28;20065;-73
2021/12/27 07:55:43;;;;;;;13.63;7.35;;;5.10;98.30;;;;;;5093391;28;20020;-72
2021/12/27 07:58:08;;;;;;;16.17;7.20;;;5.10;98.30;;;;;;5093865;28;20027;-72
2021/12/27 08:00:34;;;;;;;17.40;7.57;;;5.10;98.30;;;;;;5075637;28;20446;-72
2021/12/27 08:03:00;;;;;;;17.63;8.60;;;5.10;98.40;;;;;;5093711;28;20031;-72
2021/12/27 08:05:26;;;;;;;15.55;7.50;;;5.10;98.40;;;;;;5093687;28;20020;-72
2021/12/27 08:07:52;;;;;;;16.70;7.35;;;5.10;98.50;;;;;;5093290;28;20123;-72
2021/12/27 08:10:18;;;;;;;17.92;7.53;;;5.10;98.50;;;;;;5093557;28;20028;-72
2021/12/27 08:12:44;;;;;;;14.10;7.32;;;5.10;98.50;;;;;;5093648;28;20024;-72
2021/12/27 08:15:11;;;;;;;19.88;7.68;;;5.10;98.50;;;;;;5093797;28;20115;-71
2021/12/27 08:17:38;;;;;;;16.70;7.38;;;5.20;98.50;;;;;;5075233;28;20034;-73
2021/12/27 08:20:06;;;;;;;15.05;7.90;;;5.20;98.50;;;;;;5075331;28;20349;-73
2021/12/27 08:22:32;;;;;;;14.15;7.18;;;5.20;98.40;;;;;;5093904;28;20021;-73
2021/12/27 08:24:58;;;;;;;14.93;7.97;;;5.30;98.40;;;;;;5075274;28;20368;-73
2021/12/27 08:27:25;;;;;;;14.05;7.57;;;5.30;98.40;;;;;;5093414;28;20464;-73
2021/12/27 08:29:51;;;;;;;14.50;7.75;;;5.30;98.40;;;;;;5093358;28;20122;-84
2021/12/27 08:32:18;;;;;;;13.70;7.70;;;5.30;98.30;;;;;;5093330;28;20042;-73
2021/12/27 08:34:44;;;;;;;14.95;7.45;;;5.40;98.30;;;;;;5075130;28;20098;-71
2021/12/27 08:37:10;;;;;;;16.85;7.85;;;5.40;98.30;;;;;;5074950;28;20161;-71
2021/12/27 08:39:38;;;;;;;15.98;7.47;;;5.40;98.30;;;;;;5075082;28;20467;-71
2021/12/27 08:42:07;;;;;;;12.07;7.40;;;5.40;98.30;;;;;;5092773;28;20416;-71
2021/12/27 08:44:36;;;;;;;13.45;6.97;;;5.40;98.30;;;;;;5093165;28;20507;-71
2021/12/27 08:47:03;;;;;;;14.48;6.88;;;5.50;98.30;;;;;;5074844;28;20066;-72
2021/12/27 08:49:29;;;;;;;12.85;6.63;;;5.50;98.30;;;;;;5092863;28;20375;-73
2021/12/27 08:51:54;;;;;;;12.68;7.05;;;5.50;98.30;;;;;;5075103;28;20016;-73
2021/12/27 08:54:20;;;;;;;15.32;7.50;;;5.50;98.30;;;;;;5093375;28;20447;-73
2021/12/27 08:56:46;;;;;;;15.95;7.53;;;5.50;98.30;;;;;;5092923;28;20531;-73
2021/12/27 08:59:11;;;;;;;12.63;7.40;;;5.60;98.30;;;;;;5074983;28;20032;-73
2021/12/27 09:01:37;;;;;;;14.77;6.88;;;5.50;98.30;;;;;;5092753;28;20353;-73
2021/12/27 09:04:04;;;;;;;14.93;6.95;;;5.60;98.30;;;;;;5092964;28;20028;-73
2021/12/27 09:06:33;;;;;;;15.23;7.15;;;5.60;98.30;;;;;;5076192;28;20024;-73
2021/12/27 09:08:59;;;;;;;13.63;7.00;;;5.70;98.30;;;;;;5097045;28;20036;-73
2021/12/27 09:11:25;;;;;;;14.38;6.78;;;5.60;98.30;;;;;;5097099;28;20035;-73
2021/12/27 09:13:51;;;;;;;12.68;6.97;;;5.60;98.30;;;;;;5096998;28;20024;-72
2021/12/27 09:16:16;;;;;;;11.77;6.88;;;5.70;98.30;;;;;;5096844;28;20059;-72
2021/12/27 09:18:42;;;;;;;15.00;6.75;;;5.70;98.30;;;;;;5096942;28;20122;-72
2021/12/27 09:21:08;;;;;;;13.93;8.07;;;5.70;98.30;;;;;;5096741;28;20062;-73
2021/12/27 09:23:33;;;;;;;11.10;6.43;;;5.70;98.30;;;;;;5079436;28;20079;-73
2021/12/27 09:25:59;;;;;;;14.13;7.40;;;5.70;98.30;;;;;;5096131;28;20035;-74
2021/12/27 09:28:25;;;;;;;13.23;6.90;;;5.80;98.30;;;;;;5097035;28;20043;-73
2021/12/27 09:30:50;;;;;;;16.13;7.45;;;5.80;98.30;;;;;;5096419;28;20016;-72
2021/12/27 09:33:16;;;;;;;13.38;7.25;;;5.80;98.30;;;;;;5096619;28;20476;-71
2021/12/27 09:35:42;;;;;;;12.02;6.60;;;5.80;98.30;;;;;;5096332;28;20099;-72
2021/12/27 09:38:08;;;;;;;15.93;7.38;;;5.90;98.40;;;;;;5096105;28;20028;-72
2021/12/27 09:40:34;;;;;;;12.52;6.85;;;5.80;98.30;;;;;;5078196;28;20030;-71
2021/12/27 09:43:00;;;;;;;10.90;5.72;;;5.90;98.30;;;;;;5096397;28;20069;-72
2021/12/27 09:45:27;;;;;;;12.93;7.05;;;5.90;98.30;;;;;;5096407;28;20031;-71
2021/12/27 09:47:52;;;;;;;14.07;6.93;;;5.90;98.30;;;;;;5097019;28;20020;-72
2021/12/27 09:50:22;;;;;;;12.32;6.40;;;6.00;98.40;;;;;;5077950;28;20111;-72
2021/12/27 09:52:48;;;;;;;13.18;6.80;;;6.00;98.30;;;;;;5096213;28;20027;-72
2021/12/27 09:55:15;;;;;;;13.07;7.32;;;6.00;98.30;;;;;;5096115;28;20027;-71
2021/12/27 09:57:41;;;;;;;13.60;6.82;;;6.00;98.30;;;;;;5096066;28;20062;-72
2021/12/27 10:00:09;;;;;;;11.77;6.22;;;6.10;98.30;;;;;;5096035;28;20077;-73
2021/12/27 10:02:39;;;;;;;12.65;7.05;;;6.10;98.20;;;;;;5095764;28;20035;-73
2021/12/27 10:05:06;;;;;;;12.50;6.15;;;6.10;98.30;;;;;;5095720;28;20036;-72
2021/12/27 10:07:35;;;;;;;12.25;6.43;;;6.10;98.30;;;;;;5095961;28;20027;-72
2021/12/27 10:10:01;;;;;;;13.60;6.53;;;6.10;98.40;;;;;;5095634;28;20479;-73
2021/12/27 10:12:27;;;;;;;12.85;6.47;;;6.00;98.50;;;;;;5077631;28;20048;-73
2021/12/27 10:15:15;;;;;;;12.63;6.63;;;6.00;98.60;;;;;;5078254;28;20027;-72
2021/12/27 10:17:42;;;;;;;11.52;6.15;;;6.00;98.70;;;;;;5095943;28;20028;-72
2021/12/27 10:20:14;;;;;;;12.35;7.10;;;6.00;98.70;;;;;;5095857;28;20198;-72
2021/12/27 10:22:52;;;;;;;12.25;6.60;;;6.00;98.70;;;;;;5096564;28;20062;-72
2021/12/27 10:25:27;;;;;;;14.18;6.85;;;6.10;98.70;;;;;;5077906;28;20047;-72
2021/12/27 10:27:54;;;;;;;15.10;7.97;;;6.10;98.70;;;;;;5096254;28;20054;-72
2021/12/27 10:30:32;;;;;;;13.27;6.70;;;6.20;98.70;;;;;;5095371;28;20024;-72
2021/12/27 10:33:09;;;;;;;13.25;7.28;;;6.30;98.60;;;;;;5096120;28;20054;-73
2021/12/27 10:35:46;;;;;;;13.65;6.20;;;6.40;98.50;;;;;;5095552;28;20070;-73
2021/12/27 10:38:12;;;;;;;11.27;5.95;;;6.50;98.40;;;;;;5095861;28;20440;-73
2021/12/27 10:40:38;;;;;;;14.15;7.10;;;6.50;98.30;;;;;;5095449;28;20081;-74
2021/12/27 10:43:04;;;;;;;13.20;7.03;;;6.60;98.30;;;;;;5095923;28;20027;-74
2021/12/27 10:45:30;;;;;;;12.00;6.43;;;6.60;98.20;;;;;;5077166;28;20428;-72
2021/12/27 10:48:02;;;;;;;13.80;7.00;;;6.70;98.20;;;;;;5095385;28;20103;-73
2021/12/27 10:50:35;;;;;;;15.45;7.10;;;6.70;98.20;;;;;;5095353;28;20012;-72
2021/12/27 10:53:06;;;;;;;12.90;7.20;;;6.80;98.20;;;;;;5095453;28;20118;-73
2021/12/27 10:55:38;;;;;;;14.38;7.07;;;6.80;98.10;;;;;;5095227;28;20095;-74
2021/12/27 10:58:18;;;;;;;11.93;6.60;;;6.90;98.10;;;;;;5095031;28;20032;-74
2021/12/27 11:00:55;;;;;;;12.18;6.32;;;7.00;98.10;;;;;;5095175;28;20420;-73
2021/12/27 11:03:28;;;;;;;13.57;6.75;;;7.00;98.00;;;;;;5077180;28;20317;-73
2021/12/27 11:05:55;;;;;;;12.85;6.50;;;7.00;98.00;;;;;;5095472;28;20110;-74
2021/12/27 11:08:21;;;;;;;12.43;6.07;;;7.00;98.10;;;;;;5094956;28;20085;-74
2021/12/27 11:10:47;;;;;;;11.48;6.28;;;7.00;98.20;;;;;;5094775;28;20024;-74
2021/12/27 11:13:13;;;;;;;10.38;6.28;;;6.90;98.20;;;;;;5076927;28;20414;-74
2021/12/27 11:15:41;;;;;;;11.20;5.60;;;6.90;98.40;;;;;;5094687;28;20383;-74
2021/12/27 11:18:07;;;;;;;9.27;5.68;;;6.80;98.40;;;;;;5094857;28;20081;-73
2021/12/27 11:20:35;;;;;;;14.10;6.65;;;6.90;98.50;;;;;;5095310;28;20016;-73
2021/12/27 11:23:03;;;;;;;16.98;7.63;;;6.90;98.60;;;;;;5095378;28;20024;-73
2021/12/27 11:25:33;;;;;;;14.55;6.78;;;6.90;98.70;;;;;;5076623;28;20472;-73
2021/12/27 11:28:00;;;;;;;12.45;6.45;;;6.80;98.80;;;;;;5076236;28;20051;-74
2021/12/27 11:30:33;;;;;;;13.75;6.15;;;6.80;98.80;;;;;;5075678;28;20012;-72
2021/12/27 11:33:12;;;;;;;12.45;6.78;;;6.90;98.80;;;;;;5094482;28;20028;-73
2021/12/27 11:35:59;;;;;;;12.05;6.53;;;7.00;98.70;;;;;;5095010;28;20169;-73
2021/12/27 11:38:34;;;;;;;12.57;6.55;;;7.10;98.60;;;;;;5094485;28;20474;-73
2021/12/27 11:41:02;;;;;;;12.15;6.55;;;7.20;98.40;;;;;;5076031;28;20031;-73
2021/12/27 11:43:52;;;;;;;13.38;6.90;;;7.30;98.30;;;;;;5094098;28;20027;-74
2021/12/27 11:46:18;;;;;;;13.13;6.57;;;7.40;98.30;;;;;;5094396;28;20020;-73
2021/12/27 11:48:51;;;;;;;12.23;6.18;;;7.40;98.20;;;;;;5094572;28;20028;-73
2021/12/27 11:51:30;;;;;;;12.25;6.20;;;7.50;98.20;;;;;;5094288;28;20016;-74
2021/12/27 11:53:56;;;;;;;11.40;5.25;;;7.50;98.20;;;;;;5094044;28;20027;-73
2021/12/27 11:56:37;;;;;;;10.65;5.60;;;7.50;98.10;;;;;;5093726;28;20373;-73
2021/12/27 11:59:25;;;;;;;9.73;5.03;;;7.60;98.20;;;;;;5075417;28;20040;-74
2021/12/27 12:01:54;;;;;;;11.10;6.65;;;7.60;98.10;;;;;;5095301;28;20078;-73
2021/12/27 12:04:54;;;;;;;9.75;5.82;;;7.60;98.00;;;;;;5093912;28;20016;-73
2021/12/27 12:07:34;;;;;;;9.52;4.78;;;7.70;98.10;;;;;;5039727;28;20032;-74
2021/12/27 12:10:05;;;;;;;11.37;5.93;;;7.80;98.00;;;;;;5093733;28;20063;-73
2021/12/27 12:12:31;;;;;;;9.85;5.57;;;7.80;98.00;;;;;;5094273;28;20024;-74
2021/12/27 12:14:59;;;;;;;10.63;5.72;;;7.80;98.00;;;;;;5094131;28;20070;-74
2021/12/27 12:17:40;;;;;;;11.68;6.15;;;7.80;98.00;;;;;;5093899;28;20027;-73
2021/12/27 12:20:07;;;;;;;10.35;5.90;;;7.90;98.10;;;;;;5076006;28;20088;-72
2021/12/27 12:22:38;;;;;;;12.60;7.10;;;7.90;98.00;;;;;;5094238;28;20047;-73
2021/12/27 12:25:18;;;;;;;12.23;6.75;;;7.90;98.00;;;;;;5076167;28;20067;-73
2021/12/27 12:28:02;;;;;;;10.57;6.00;;;7.90;98.10;;;;;;5094508;28;20136;-74
2021/12/27 12:30:41;;;;;;;11.57;6.18;;;7.90;98.10;;;;;;5094275;28;20059;-73
2021/12/27 12:33:13;;;;;;;11.95;6.93;;;7.90;98.00;;;;;;5094063;28;20016;-72
2021/12/27 12:35:39;;;;;;;13.02;6.70;;;7.90;98.10;;;;;;5075221;28;20059;-74
2021/12/27 12:38:35;;;;;;;11.50;5.57;;;7.90;98.10;;;;;;5093257;28;20079;-74
2021/12/27 12:41:17;;;;;;;11.10;5.90;;;7.90;98.10;;;;;;5091118;28;20032;-74
2021/12/27 12:43:51;;;;;;;11.70;6.15;;;8.00;98.10;;;;;;5075558;28;20016;-74
2021/12/27 12:46:38;;;;;;;11.50;6.22;;;8.00;98.10;;;;;;5093045;28;20388;-74
2021/12/27 12:49:12;;;;;;;10.30;5.30;;;8.00;98.10;;;;;;5094105;28;20118;-73
2021/12/27 12:51:40;;;;;;;10.00;5.35;;;8.00;98.10;;;;;;5093114;28;20023;-73
2021/12/27 12:54:23;;;;;;;12.20;5.40;;;8.00;98.10;;;;;;5093623;28;20012;-74